createdAt,value
2022-10-19T00:00:51.810Z,1021.26
2022-10-19T00:01:51.859Z,1021.27
2022-10-19T00:02:51.761Z,1021.27
2022-10-19T00:03:51.764Z,1021.25
2022-10-19T00:04:51.712Z,1021.27
2022-10-19T00:05:51.687Z,1021.27
2022-10-19T00:06:51.658Z,1021.29
2022-10-19T00:07:51.636Z,1021.29
2022-10-19T00:08:51.613Z,1021.30
2022-10-19T00:09:51.587Z,1021.26
2022-10-19T00:10:51.560Z,1021.27
2022-10-19T00:11:51.559Z,1021.26
2022-10-19T00:12:51.513Z,1021.29
2022-10-19T00:13:51.490Z,1021.30
2022-10-19T00:14:51.462Z,1021.30
2022-10-19T00:15:51.440Z,1021.30
2022-10-19T00:16:51.410Z,1021.28
2022-10-19T00:17:51.391Z,1021.29
2022-10-19T00:18:51.362Z,1021.29
2022-10-19T00:19:51.339Z,1021.31
2022-10-19T00:20:51.311Z,1021.29
2022-10-19T00:22:51.259Z,1021.24
2022-10-19T00:23:51.242Z,1021.28
2022-10-19T00:24:51.211Z,1021.30
2022-10-19T00:25:51.190Z,1021.26
2022-10-19T00:26:51.159Z,1021.24
2022-10-19T00:27:51.157Z,1021.23
2022-10-19T00:28:51.154Z,1021.22
2022-10-19T00:29:51.088Z,1021.26
2022-10-19T00:30:51.066Z,1021.23
2022-10-19T00:31:51.046Z,1021.30
2022-10-19T00:32:51.011Z,1021.27
2022-10-19T00:33:50.988Z,1021.32
2022-10-19T00:34:50.960Z,1021.29
2022-10-19T00:35:50.937Z,1021.30
2022-10-19T00:36:50.912Z,1021.31
2022-10-19T00:37:50.888Z,1021.29
2022-10-19T00:38:50.870Z,1021.29
2022-10-19T00:40:50.811Z,1021.24
2022-10-19T00:41:50.789Z,1021.25
2022-10-19T00:42:50.760Z,1021.25
2022-10-19T00:43:50.755Z,1021.25
2022-10-19T00:44:50.710Z,1021.26
2022-10-19T00:45:50.688Z,1021.25
2022-10-19T00:46:50.659Z,1021.29
2022-10-19T00:47:50.639Z,1021.29
2022-10-19T00:48:50.614Z,1021.26
2022-10-19T00:49:50.589Z,1021.27
2022-10-19T00:50:50.559Z,1021.27
2022-10-19T00:51:50.536Z,1021.32
2022-10-19T00:52:50.510Z,1021.31
2022-10-19T00:53:50.487Z,1021.32
2022-10-19T00:54:50.460Z,1021.33
2022-10-19T00:55:50.438Z,1021.28
2022-10-19T00:56:50.410Z,1021.31
2022-10-19T00:58:50.360Z,1021.27
2022-10-19T00:59:50.354Z,1021.30
2022-10-19T01:00:50.360Z,1021.30
2022-10-19T01:01:50.288Z,1021.33
2022-10-19T01:02:50.313Z,1021.32
2022-10-19T01:03:50.240Z,1021.33
2022-10-19T01:04:50.210Z,1021.33
2022-10-19T01:05:50.185Z,1021.33
2022-10-19T01:07:50.136Z,1021.28
2022-10-19T01:08:50.114Z,1021.29
2022-10-19T01:09:50.085Z,1021.30
2022-10-19T01:10:50.058Z,1021.26
2022-10-19T01:11:50.049Z,1021.27
2022-10-19T01:12:50.009Z,1021.23
2022-10-19T01:13:49.986Z,1021.23
2022-10-19T01:14:49.956Z,1021.26
2022-10-19T01:15:50.052Z,1021.23
2022-10-19T01:16:49.908Z,1021.17
2022-10-19T01:17:49.899Z,1021.24
2022-10-19T01:18:49.859Z,1021.22
2022-10-19T01:19:49.837Z,1021.18
2022-10-19T01:20:49.808Z,1021.13
2022-10-19T01:21:49.785Z,1021.08
2022-10-19T01:22:49.762Z,1021.11
2022-10-19T01:23:49.734Z,1021.11
2022-10-19T01:24:49.754Z,1021.06
2022-10-19T01:25:49.686Z,1021.06
2022-10-19T01:26:49.658Z,1021.06
2022-10-19T01:27:49.637Z,1021.06
2022-10-19T01:28:49.647Z,1021.06
2022-10-19T01:29:49.588Z,1021.07
2022-10-19T01:30:49.558Z,1021.05
2022-10-19T01:31:49.555Z,1021.01
2022-10-19T01:32:49.509Z,1021.00
2022-10-19T01:33:49.538Z,1021.01
2022-10-19T01:34:49.458Z,1021.01
2022-10-19T01:35:49.433Z,1020.99
2022-10-19T01:36:49.408Z,1021.01
2022-10-19T01:37:49.396Z,1021.00
2022-10-19T01:38:49.357Z,1021.00
2022-10-19T01:39:49.991Z,1020.97
2022-10-19T01:40:49.308Z,1020.97
2022-10-19T01:41:49.283Z,1020.99
2022-10-19T01:42:49.288Z,1020.98
2022-10-19T01:43:49.235Z,1020.97
2022-10-19T01:44:49.204Z,1021.02
2022-10-19T01:45:49.184Z,1021.00
2022-10-19T01:46:49.155Z,1021.01
2022-10-19T01:47:49.153Z,1021.00
2022-10-19T01:48:49.103Z,1020.98
2022-10-19T01:49:49.084Z,1020.98
2022-10-19T01:52:16.560Z,1021.02
2022-10-19T01:53:16.535Z,1021.06
2022-10-19T01:54:16.509Z,1021.08
2022-10-19T01:55:16.486Z,1021.05
2022-10-19T01:56:16.455Z,1021.05
2022-10-19T01:57:16.438Z,1021.04
2022-10-19T01:58:16.405Z,1021.06
2022-10-19T01:59:16.382Z,1021.00
2022-10-19T02:00:16.354Z,1021.04
2022-10-19T02:01:16.332Z,1021.02
2022-10-19T02:02:16.303Z,1021.01
2022-10-19T02:03:16.296Z,1021.04
2022-10-19T02:04:16.254Z,1021.05
2022-10-19T02:05:16.227Z,1021.06
2022-10-19T02:06:16.199Z,1021.05
2022-10-19T02:07:16.177Z,1021.06
2022-10-19T02:08:16.151Z,1021.05
2022-10-19T02:09:16.126Z,1021.04
2022-10-19T02:10:16.102Z,1021.03
2022-10-19T02:11:16.075Z,1021.04
2022-10-19T02:12:16.045Z,1021.06
2022-10-19T02:13:16.025Z,1021.04
2022-10-19T02:14:15.995Z,1021.01
2022-10-19T02:15:15.974Z,1021.10
2022-10-19T02:16:15.945Z,1021.06
2022-10-19T02:17:15.922Z,1021.05
2022-10-19T02:18:15.892Z,1021.08
2022-10-19T02:19:15.937Z,1021.09
2022-10-19T02:20:15.843Z,1021.10
2022-10-19T02:21:15.820Z,1021.05
2022-10-19T02:22:15.796Z,1021.05
2022-10-19T02:23:15.768Z,1021.04
2022-10-19T02:24:15.741Z,1021.03
2022-10-19T02:25:15.716Z,1021.03
2022-10-19T02:26:15.694Z,1021.06
2022-10-19T02:27:15.667Z,1021.04
2022-10-19T02:28:15.678Z,1021.08
2022-10-19T02:29:15.614Z,1021.11
2022-10-19T02:30:15.588Z,1021.08
2022-10-19T02:31:15.563Z,1021.05
2022-10-19T02:32:15.536Z,1021.04
2022-10-19T02:33:15.515Z,1021.03
2022-10-19T02:34:15.488Z,1021.06
2022-10-19T02:35:15.484Z,1021.00
2022-10-19T02:36:15.436Z,1021.02
2022-10-19T02:37:15.492Z,1021.03
2022-10-19T02:38:15.387Z,1021.00
2022-10-19T02:39:15.363Z,1020.94
2022-10-19T02:40:15.336Z,1020.95
2022-10-19T02:41:15.310Z,1020.93
2022-10-19T02:42:15.285Z,1020.93
2022-10-19T02:43:15.259Z,1020.94
2022-10-19T02:44:15.230Z,1020.94
2022-10-19T02:45:15.208Z,1020.93
2022-10-19T02:46:15.182Z,1020.92
2022-10-19T02:47:15.158Z,1020.94
2022-10-19T02:48:15.130Z,1020.93
2022-10-19T02:49:15.105Z,1020.93
2022-10-19T02:50:15.083Z,1020.92
2022-10-19T02:51:15.076Z,1020.92
2022-10-19T02:52:15.030Z,1020.92
2022-10-19T02:53:15.000Z,1020.90
2022-10-19T02:54:14.976Z,1020.91
2022-10-19T02:55:14.950Z,1020.91
2022-10-19T02:56:14.928Z,1020.88
2022-10-19T02:57:14.900Z,1020.88
2022-10-19T02:58:14.872Z,1020.88
2022-10-19T02:59:14.850Z,1020.89
2022-10-19T03:00:14.820Z,1020.86
2022-10-19T03:01:14.860Z,1020.92
2022-10-19T03:02:14.775Z,1020.89
2022-10-19T03:03:14.751Z,1020.89
2022-10-19T03:04:14.719Z,1020.88
2022-10-19T03:05:14.697Z,1020.87
2022-10-19T03:06:14.668Z,1020.85
2022-10-19T03:07:14.672Z,1020.82
2022-10-19T03:08:14.617Z,1020.83
2022-10-19T03:09:14.593Z,1020.86
2022-10-19T03:10:14.566Z,1020.78
2022-10-19T03:11:14.544Z,1020.83
2022-10-19T03:12:14.513Z,1020.80
2022-10-19T03:13:14.492Z,1020.80
2022-10-19T03:14:14.470Z,1020.83
2022-10-19T03:15:14.455Z,1020.85
2022-10-19T03:16:14.413Z,1020.83
2022-10-19T03:17:14.390Z,1020.88
2022-10-19T03:18:14.365Z,1020.85
2022-10-19T03:19:14.339Z,1020.83
2022-10-19T03:20:14.312Z,1020.86
2022-10-19T03:21:14.286Z,1020.84
2022-10-19T03:22:14.265Z,1020.83
2022-10-19T03:23:14.257Z,1020.81
2022-10-19T03:24:14.211Z,1020.80
2022-10-19T03:25:14.183Z,1020.80
2022-10-19T03:26:14.157Z,1020.81
2022-10-19T03:27:14.133Z,1020.76
2022-10-19T03:28:14.106Z,1020.76
2022-10-19T03:29:14.083Z,1020.77
2022-10-19T03:30:14.055Z,1020.77
2022-10-19T03:31:14.030Z,1020.75
2022-10-19T03:32:14.005Z,1020.76
2022-10-19T03:33:14.039Z,1020.80
2022-10-19T03:34:13.958Z,1020.81
2022-10-19T03:35:13.934Z,1020.83
2022-10-19T03:36:13.899Z,1020.80
2022-10-19T03:37:13.878Z,1020.83
2022-10-19T03:38:13.849Z,1020.85
2022-10-19T03:39:13.846Z,1020.85
2022-10-19T03:40:13.798Z,1020.88
2022-10-19T03:41:13.777Z,1020.88
2022-10-19T03:42:13.751Z,1020.91
2022-10-19T03:43:13.724Z,1020.90
2022-10-19T03:44:13.695Z,1020.92
2022-10-19T03:45:13.670Z,1020.96
2022-10-19T03:46:13.644Z,1020.93
2022-10-19T03:47:13.625Z,1020.95
2022-10-19T03:48:13.599Z,1020.96
2022-10-19T03:49:13.568Z,1020.95
2022-10-19T03:50:13.543Z,1020.95
2022-10-19T03:51:13.515Z,1020.96
2022-10-19T03:52:13.486Z,1020.95
2022-10-19T03:53:13.464Z,1020.95
2022-10-19T03:54:13.437Z,1020.96
2022-10-19T03:55:13.516Z,1020.93
2022-10-19T03:56:13.438Z,1020.95
2022-10-19T03:57:13.384Z,1020.96
2022-10-19T03:58:13.398Z,1020.99
2022-10-19T03:59:13.373Z,1020.96
2022-10-19T04:00:13.322Z,1020.95
2022-10-19T04:01:13.406Z,1020.95
2022-10-19T04:02:13.269Z,1020.96
2022-10-19T04:03:13.209Z,1020.99
2022-10-19T04:04:13.178Z,1020.97
2022-10-19T04:05:13.151Z,1020.95
2022-10-19T04:06:15.756Z,1020.98
2022-10-19T04:07:13.102Z,1020.99
2022-10-19T04:08:13.072Z,1020.94
2022-10-19T04:09:13.048Z,1020.93
2022-10-19T04:10:13.020Z,1020.96
2022-10-19T04:11:13.015Z,1020.95
2022-10-19T04:12:12.968Z,1020.93
2022-10-19T04:13:12.946Z,1020.94
2022-10-19T04:14:19.030Z,1020.92
2022-10-19T04:15:12.893Z,1020.93
2022-10-19T04:16:12.867Z,1020.89
2022-10-19T04:17:12.839Z,1020.92
2022-10-19T04:18:12.813Z,1020.94
2022-10-19T04:19:12.790Z,1020.95
2022-10-19T04:20:12.769Z,1020.94
2022-10-19T04:21:12.739Z,1020.95
2022-10-19T04:22:12.712Z,1020.93
2022-10-19T04:23:12.744Z,1020.90
2022-10-19T04:24:12.659Z,1020.90
2022-10-19T04:25:12.635Z,1020.88
2022-10-19T04:26:12.608Z,1020.92
2022-10-19T04:27:12.603Z,1020.96
2022-10-19T04:28:12.557Z,1020.94
2022-10-19T04:29:12.613Z,1020.97
2022-10-19T04:30:12.508Z,1020.96
2022-10-19T04:31:12.482Z,1020.94
2022-10-19T04:32:12.455Z,1021.01
2022-10-19T04:33:12.428Z,1020.99
2022-10-19T04:34:12.411Z,1020.96
2022-10-19T04:35:12.380Z,1021.00
2022-10-19T04:36:12.351Z,1020.97
2022-10-19T04:37:12.325Z,1020.95
2022-10-19T04:38:12.298Z,1020.93
2022-10-19T04:39:12.274Z,1020.92
2022-10-19T04:40:14.979Z,1020.95
2022-10-19T04:41:12.222Z,1020.89
2022-10-19T04:42:12.195Z,1020.92
2022-10-19T04:43:12.187Z,1020.87
2022-10-19T04:44:12.221Z,1020.84
2022-10-19T04:45:12.119Z,1020.81
2022-10-19T04:46:12.095Z,1020.79
2022-10-19T04:47:12.067Z,1020.82
2022-10-19T04:48:15.042Z,1020.81
2022-10-19T04:49:15.123Z,1020.77
2022-10-19T04:50:11.987Z,1020.74
2022-10-19T04:51:11.967Z,1020.72
2022-10-19T04:52:11.934Z,1020.73
2022-10-19T04:53:11.968Z,1020.70
2022-10-19T04:54:11.886Z,1020.67
2022-10-19T04:55:11.861Z,1020.70
2022-10-19T04:56:11.830Z,1020.69
2022-10-19T04:57:11.811Z,1020.63
2022-10-19T04:58:11.780Z,1020.66
2022-10-19T04:59:11.774Z,1020.67
2022-10-19T05:00:11.728Z,1020.67
2022-10-19T05:01:11.741Z,1020.70
2022-10-19T05:02:11.676Z,1020.66
2022-10-19T05:03:11.653Z,1020.70
2022-10-19T05:04:11.623Z,1020.71
2022-10-19T05:05:11.598Z,1020.70
2022-10-19T05:06:11.575Z,1020.66
2022-10-19T05:07:11.549Z,1020.67
2022-10-19T05:08:11.522Z,1020.62
2022-10-19T05:09:11.499Z,1020.61
2022-10-19T05:10:11.468Z,1020.62
2022-10-19T05:11:11.442Z,1020.58
2022-10-19T05:12:11.418Z,1020.55
2022-10-19T05:13:11.394Z,1020.54
2022-10-19T05:14:11.366Z,1020.49
2022-10-19T05:15:11.359Z,1020.51
2022-10-19T05:16:11.312Z,1020.52
2022-10-19T05:17:11.287Z,1020.51
2022-10-19T05:18:11.261Z,1020.50
2022-10-19T05:19:11.237Z,1020.46
2022-10-19T05:20:11.209Z,1020.45
2022-10-19T05:21:11.186Z,1020.50
2022-10-19T05:22:11.158Z,1020.53
2022-10-19T05:23:11.131Z,1020.52
2022-10-19T05:24:11.109Z,1020.48
2022-10-19T05:25:11.081Z,1020.47
2022-10-19T05:26:11.052Z,1020.47
2022-10-19T05:27:11.028Z,1020.47
2022-10-19T05:28:11.000Z,1020.51
2022-10-19T05:29:11.039Z,1020.54
2022-10-19T05:30:10.950Z,1020.54
2022-10-19T05:31:10.948Z,1020.52
2022-10-19T05:32:10.898Z,1020.51
2022-10-19T05:33:10.872Z,1020.55
2022-10-19T05:34:10.941Z,1020.59
2022-10-19T05:35:10.821Z,1020.63
2022-10-19T05:36:10.792Z,1020.62
2022-10-19T05:37:10.767Z,1020.64
2022-10-19T05:38:10.742Z,1020.61
2022-10-19T05:39:10.719Z,1020.57
2022-10-19T05:40:10.689Z,1020.56
2022-10-19T05:41:10.660Z,1020.60
2022-10-19T05:42:10.635Z,1020.60
2022-10-19T05:43:10.614Z,1020.59
2022-10-19T05:44:10.582Z,1020.61
2022-10-19T05:45:10.572Z,1020.59
2022-10-19T05:46:10.533Z,1020.57
2022-10-19T05:47:10.533Z,1020.55
2022-10-19T05:48:10.480Z,1020.54
2022-10-19T05:49:10.450Z,1020.54
2022-10-19T05:50:10.467Z,1020.53
2022-10-19T05:51:10.401Z,1020.52
2022-10-19T05:52:10.416Z,1020.54
2022-10-19T05:53:10.350Z,1020.54
2022-10-19T05:54:10.318Z,1020.52
2022-10-19T05:55:10.297Z,1020.60
2022-10-19T05:56:10.267Z,1020.55
2022-10-19T05:57:10.246Z,1020.57
2022-10-19T05:58:10.217Z,1020.59
2022-10-19T05:59:10.262Z,1020.62
2022-10-19T06:00:10.163Z,1020.61
2022-10-19T06:01:10.138Z,1020.63
2022-10-19T06:02:10.154Z,1020.65
2022-10-19T06:03:10.104Z,1020.68
2022-10-19T06:04:10.076Z,1020.68
2022-10-19T06:05:10.035Z,1020.64
2022-10-19T06:06:10.008Z,1020.64
2022-10-19T06:07:09.981Z,1020.63
2022-10-19T06:08:09.957Z,1020.57
2022-10-19T06:09:09.928Z,1020.58
2022-10-19T06:10:09.910Z,1020.59
2022-10-19T06:11:09.876Z,1020.60
2022-10-19T06:12:09.851Z,1020.59
2022-10-19T06:13:09.824Z,1020.60
2022-10-19T06:14:09.799Z,1020.61
2022-10-19T06:15:09.772Z,1020.63
2022-10-19T06:16:09.750Z,1020.65
2022-10-19T06:17:09.722Z,1020.63
2022-10-19T06:18:09.697Z,1020.66
2022-10-19T06:19:09.687Z,1020.70
2022-10-19T06:20:09.643Z,1020.67
2022-10-19T06:21:09.617Z,1020.64
2022-10-19T06:22:09.594Z,1020.63
2022-10-19T06:23:09.565Z,1020.69
2022-10-19T06:24:09.539Z,1020.66
2022-10-19T06:25:09.511Z,1020.67
2022-10-19T06:26:09.486Z,1020.65
2022-10-19T06:27:09.497Z,1020.68
2022-10-19T06:28:09.487Z,1020.73
2022-10-19T06:29:09.411Z,1020.73
2022-10-19T06:30:09.385Z,1020.82
2022-10-19T06:31:09.651Z,1020.79
2022-10-19T06:32:09.331Z,1020.80
2022-10-19T06:33:09.416Z,1020.84
2022-10-19T06:34:09.322Z,1020.84
2022-10-19T06:35:09.271Z,1020.88
2022-10-19T06:36:09.229Z,1020.91
2022-10-19T06:37:09.201Z,1020.92
2022-10-19T06:38:09.176Z,1020.89
2022-10-19T06:39:09.148Z,1020.90
2022-10-19T06:40:09.152Z,1020.90
2022-10-19T06:41:09.095Z,1020.89
2022-10-19T06:42:09.074Z,1020.91
2022-10-19T06:43:09.045Z,1020.91
2022-10-19T06:44:09.022Z,1020.91
2022-10-19T06:45:08.993Z,1020.95
2022-10-19T06:46:08.968Z,1020.98
2022-10-19T06:47:08.943Z,1020.94
2022-10-19T06:48:08.928Z,1021.00
2022-10-19T06:49:08.901Z,1020.95
2022-10-19T06:50:08.864Z,1020.94
2022-10-19T06:51:08.856Z,1020.92
2022-10-19T06:52:08.812Z,1020.93
2022-10-19T06:53:08.784Z,1020.92
2022-10-19T06:54:08.760Z,1020.97
2022-10-19T06:55:08.738Z,1020.95
2022-10-19T06:56:08.710Z,1020.93
2022-10-19T06:57:08.681Z,1020.99
2022-10-19T06:58:08.659Z,1020.94
2022-10-19T06:59:08.630Z,1020.93
2022-10-19T07:00:08.609Z,1020.87
2022-10-19T07:01:08.672Z,1020.90
2022-10-19T07:02:08.557Z,1020.93
2022-10-19T07:03:08.528Z,1020.87
2022-10-19T07:04:08.499Z,1020.88
2022-10-19T07:05:08.476Z,1020.85
2022-10-19T07:06:08.452Z,1020.85
2022-10-19T07:07:08.443Z,1020.86
2022-10-19T07:08:08.466Z,1020.86
2022-10-19T07:09:08.373Z,1020.86
2022-10-19T07:10:08.403Z,1020.85
2022-10-19T07:11:08.321Z,1020.89
2022-10-19T07:12:08.320Z,1020.91
2022-10-19T07:14:08.318Z,1020.96
2022-10-19T07:15:08.218Z,1020.98
2022-10-19T07:16:08.193Z,1020.97
2022-10-19T07:17:08.171Z,1021.00
2022-10-19T07:18:08.145Z,1020.99
2022-10-19T07:19:08.167Z,1020.96
2022-10-19T07:20:08.092Z,1020.95
2022-10-19T07:21:08.063Z,1020.95
2022-10-19T07:22:08.040Z,1020.90
2022-10-19T07:23:08.036Z,1020.92
2022-10-19T07:24:07.997Z,1020.91
2022-10-19T07:25:07.967Z,1020.93
2022-10-19T07:26:07.943Z,1020.97
2022-10-19T07:27:07.915Z,1020.97
2022-10-19T07:28:07.888Z,1020.97
2022-10-19T07:29:07.863Z,1020.96
2022-10-19T07:30:07.840Z,1020.97
2022-10-19T07:31:07.815Z,1020.97
2022-10-19T07:32:07.789Z,1020.92
2022-10-19T07:33:07.894Z,1020.94
2022-10-19T07:34:07.739Z,1020.95
2022-10-19T07:35:07.712Z,1020.96
2022-10-19T07:36:07.687Z,1020.95
2022-10-19T07:37:07.662Z,1020.95
2022-10-19T07:38:07.638Z,1020.95
2022-10-19T07:39:07.631Z,1021.01
2022-10-19T07:40:07.588Z,1021.02
2022-10-19T07:41:07.566Z,1021.05
2022-10-19T07:42:07.540Z,1021.05
2022-10-19T07:43:07.510Z,1021.07
2022-10-19T07:44:08.971Z,1021.09
2022-10-19T07:45:07.459Z,1021.14
2022-10-19T07:46:07.437Z,1021.14
2022-10-19T07:47:07.410Z,1021.13
2022-10-19T07:48:07.389Z,1021.08
2022-10-19T07:49:07.361Z,1021.07
2022-10-19T07:50:07.336Z,1021.06
2022-10-19T07:51:07.310Z,1021.07
2022-10-19T07:52:07.286Z,1021.09
2022-10-19T07:53:07.259Z,1021.09
2022-10-19T07:54:07.238Z,1021.15
2022-10-19T07:55:07.230Z,1021.16
2022-10-19T07:56:07.184Z,1021.14
2022-10-19T07:57:07.161Z,1021.13
2022-10-19T07:58:07.137Z,1021.16
2022-10-19T07:59:07.109Z,1021.15
2022-10-19T08:00:07.085Z,1021.11
2022-10-19T08:01:07.060Z,1021.09
2022-10-19T08:02:07.084Z,1021.10
2022-10-19T08:04:55.619Z,1021.07
2022-10-19T08:05:10.466Z,1021.10
2022-10-19T08:06:06.939Z,1021.07
2022-10-19T08:07:06.910Z,1021.09
2022-10-19T08:08:06.888Z,1021.12
2022-10-19T08:09:06.947Z,1021.12
2022-10-19T08:10:06.836Z,1021.15
2022-10-19T08:11:06.839Z,1021.19
2022-10-19T08:12:06.790Z,1021.13
2022-10-19T08:13:06.765Z,1021.16
2022-10-19T08:14:06.740Z,1021.19
2022-10-19T08:15:06.717Z,1021.19
2022-10-19T08:16:06.692Z,1021.17
2022-10-19T08:17:06.664Z,1021.18
2022-10-19T08:18:06.641Z,1021.17
2022-10-19T08:19:06.613Z,1021.21
2022-10-19T08:20:06.596Z,1021.23
2022-10-19T08:21:06.565Z,1021.19
2022-10-19T08:22:06.547Z,1021.19
2022-10-19T08:23:06.517Z,1021.17
2022-10-19T08:24:06.491Z,1021.18
2022-10-19T08:25:06.470Z,1021.16
2022-10-19T08:26:06.445Z,1021.13
2022-10-19T08:27:06.439Z,1021.14
2022-10-19T08:28:06.396Z,1021.11
2022-10-19T08:29:06.370Z,1021.12
2022-10-19T08:30:06.345Z,1021.08
2022-10-19T08:31:06.321Z,1021.10
2022-10-19T08:32:06.300Z,1021.10
2022-10-19T08:33:06.274Z,1021.07
2022-10-19T08:34:06.248Z,1021.09
2022-10-19T08:35:09.979Z,1021.09
2022-10-19T08:36:06.200Z,1021.13
2022-10-19T08:37:14.758Z,1021.10
2022-10-19T08:38:06.152Z,1021.13
2022-10-19T08:39:06.128Z,1021.14
2022-10-19T08:40:06.101Z,1021.15
2022-10-19T08:41:06.077Z,1021.18
2022-10-19T08:42:06.053Z,1021.14
2022-10-19T08:43:06.048Z,1021.18
2022-10-19T08:44:09.191Z,1021.18
2022-10-19T08:45:05.993Z,1021.20
2022-10-19T08:46:05.964Z,1021.23
2022-10-19T08:47:07.656Z,1021.22
2022-10-19T08:48:05.911Z,1021.19
2022-10-19T08:49:05.883Z,1021.18
2022-10-19T08:50:05.862Z,1021.16
2022-10-19T08:51:05.840Z,1021.13
2022-10-19T08:52:05.816Z,1021.13
2022-10-19T08:53:05.790Z,1021.11
2022-10-19T08:54:05.769Z,1021.11
2022-10-19T08:55:05.746Z,1021.10
2022-10-19T08:56:05.719Z,1021.14
2022-10-19T08:57:05.695Z,1021.14
2022-10-19T08:58:05.670Z,1021.16
2022-10-19T08:59:05.663Z,1021.16
2022-10-19T09:00:05.623Z,1021.22
2022-10-19T09:01:05.600Z,1021.23
2022-10-19T09:02:05.585Z,1021.22
2022-10-19T09:03:05.553Z,1021.21
2022-10-19T09:04:05.528Z,1021.24
2022-10-19T09:05:05.503Z,1021.18
2022-10-19T09:06:05.481Z,1021.15
2022-10-19T09:07:05.454Z,1021.16
2022-10-19T09:08:05.431Z,1021.17
2022-10-19T09:09:05.490Z,1021.17
2022-10-19T09:10:05.390Z,1021.21
2022-10-19T09:11:05.366Z,1021.16
2022-10-19T09:12:05.338Z,1021.18
2022-10-19T09:13:05.315Z,1021.24
2022-10-19T09:14:06.106Z,1021.20
2022-10-19T09:15:05.286Z,1021.25
2022-10-19T09:16:05.241Z,1021.23
2022-10-19T09:17:05.221Z,1021.19
2022-10-19T09:18:05.194Z,1021.22
2022-10-19T09:19:05.217Z,1021.17
2022-10-19T09:20:05.146Z,1021.14
2022-10-19T09:21:05.175Z,1021.08
2022-10-19T09:22:05.107Z,1021.06
2022-10-19T09:23:07.602Z,1021.00
2022-10-19T09:24:05.053Z,1020.97
2022-10-19T09:25:05.035Z,1020.94
2022-10-19T09:26:05.007Z,1020.94
2022-10-19T09:27:04.981Z,1020.91
2022-10-19T09:28:04.961Z,1020.93
2022-10-19T09:29:04.935Z,1020.93
2022-10-19T09:30:04.916Z,1020.95
2022-10-19T09:31:04.930Z,1020.94
2022-10-19T09:32:04.867Z,1020.95
2022-10-19T09:33:04.843Z,1020.95
2022-10-19T09:34:04.817Z,1020.93
2022-10-19T09:35:04.796Z,1020.95
2022-10-19T09:36:04.770Z,1020.91
2022-10-19T09:37:04.841Z,1020.92
2022-10-19T09:38:04.728Z,1020.87
2022-10-19T09:39:04.705Z,1020.86
2022-10-19T09:40:04.676Z,1020.88
2022-10-19T09:41:04.657Z,1020.87
2022-10-19T09:42:04.633Z,1020.86
2022-10-19T09:43:04.609Z,1020.85
2022-10-19T09:44:04.584Z,1020.92
2022-10-19T09:45:04.561Z,1020.88
2022-10-19T09:46:11.613Z,1020.87
2022-10-19T09:47:04.867Z,1020.87
2022-10-19T09:48:08.785Z,1020.80
2022-10-19T09:49:04.468Z,1020.84
2022-10-19T09:50:04.447Z,1020.80
2022-10-19T09:51:04.425Z,1020.82
2022-10-19T09:52:04.402Z,1020.81
2022-10-19T09:53:04.379Z,1020.77
2022-10-19T09:54:04.359Z,1020.78
2022-10-19T09:55:04.333Z,1020.79
2022-10-19T09:56:04.316Z,1020.80
2022-10-19T09:57:04.398Z,1020.83
2022-10-19T09:58:04.268Z,1020.83
2022-10-19T09:59:04.247Z,1020.76
2022-10-19T10:00:04.228Z,1020.77
2022-10-19T10:01:04.202Z,1020.81
2022-10-19T10:02:04.191Z,1020.77
2022-10-19T10:03:04.180Z,1020.84
2022-10-19T10:04:04.137Z,1020.86
2022-10-19T10:05:04.112Z,1020.82
2022-10-19T10:06:04.095Z,1020.79
2022-10-19T10:07:04.100Z,1020.76
2022-10-19T10:08:04.051Z,1020.75
2022-10-19T10:09:04.149Z,1020.74
2022-10-19T10:10:04.008Z,1020.74
2022-10-19T10:11:03.984Z,1020.69
2022-10-19T10:12:03.972Z,1020.71
2022-10-19T10:13:03.944Z,1020.72
2022-10-19T10:14:06.171Z,1020.75
2022-10-19T10:15:03.901Z,1020.72
2022-10-19T10:16:03.879Z,1020.73
2022-10-19T10:17:03.971Z,1020.74
2022-10-19T10:18:03.838Z,1020.74
2022-10-19T10:19:03.832Z,1020.76
2022-10-19T10:20:03.796Z,1020.71
2022-10-19T10:21:05.893Z,1020.69
2022-10-19T10:22:03.780Z,1020.73
2022-10-19T10:23:03.733Z,1020.73
2022-10-19T10:24:03.708Z,1020.71
2022-10-19T10:25:03.687Z,1020.67
2022-10-19T10:26:03.663Z,1020.70
2022-10-19T10:27:03.718Z,1020.70
2022-10-19T10:28:03.620Z,1020.71
2022-10-19T10:29:03.599Z,1020.74
2022-10-19T10:30:03.579Z,1020.73
2022-10-19T10:31:03.558Z,1020.76
2022-10-19T10:32:03.542Z,1020.72
2022-10-19T10:33:13.497Z,1020.72
2022-10-19T10:34:12.255Z,1020.70
2022-10-19T10:35:03.494Z,1020.75
2022-10-19T10:36:03.448Z,1020.74
2022-10-19T10:37:03.477Z,1020.76
2022-10-19T10:38:03.409Z,1020.76
2022-10-19T10:40:45.810Z,1020.66
2022-10-19T10:41:45.787Z,1020.65
2022-10-19T10:42:45.765Z,1020.67
2022-10-19T10:43:45.788Z,1020.66
2022-10-19T10:44:45.723Z,1020.63
2022-10-19T10:45:45.704Z,1020.62
2022-10-19T10:46:45.682Z,1020.57
2022-10-19T10:47:45.660Z,1020.60
2022-10-19T10:48:47.017Z,1020.59
2022-10-19T10:49:45.620Z,1020.55
2022-10-19T10:50:45.615Z,1020.49
2022-10-19T10:51:49.234Z,1020.44
2022-10-19T10:52:45.555Z,1020.45
2022-10-19T10:53:45.537Z,1020.47
2022-10-19T10:54:45.512Z,1020.45
2022-10-19T10:55:45.494Z,1020.48
2022-10-19T10:56:45.469Z,1020.49
2022-10-19T10:57:45.452Z,1020.53
2022-10-19T10:58:45.426Z,1020.48
2022-10-19T10:59:45.773Z,1020.50
2022-10-19T11:00:45.385Z,1020.46
2022-10-19T11:01:45.466Z,1020.46
2022-10-19T11:02:45.344Z,1020.44
2022-10-19T11:03:45.324Z,1020.45
2022-10-19T11:04:47.451Z,1020.42
2022-10-19T11:05:45.280Z,1020.42
2022-10-19T11:06:45.283Z,1020.41
2022-10-19T11:07:45.239Z,1020.45
2022-10-19T11:08:45.243Z,1020.38
2022-10-19T11:09:45.196Z,1020.31
2022-10-19T11:10:45.176Z,1020.28
2022-10-19T11:11:45.155Z,1020.29
2022-10-19T11:12:45.131Z,1020.23
2022-10-19T11:13:45.114Z,1020.26
2022-10-19T11:14:45.088Z,1020.25
2022-10-19T11:15:45.072Z,1020.25
2022-10-19T11:16:45.045Z,1020.21
2022-10-19T11:17:45.026Z,1020.20
2022-10-19T11:18:45.002Z,1020.15
2022-10-19T11:19:44.983Z,1020.14
2022-10-19T11:20:44.958Z,1020.13
2022-10-19T11:21:44.937Z,1020.10
2022-10-19T11:22:44.933Z,1020.05
2022-10-19T11:23:44.895Z,1020.02
2022-10-19T11:24:47.843Z,1020.01
2022-10-19T11:25:44.855Z,1020.03
2022-10-19T11:26:44.832Z,1020.03
2022-10-19T11:27:44.814Z,1019.96
2022-10-19T11:28:44.786Z,1019.97
2022-10-19T11:29:44.765Z,1019.92
2022-10-19T11:30:50.496Z,1019.89
2022-10-19T11:31:44.724Z,1019.89
2022-10-19T11:32:46.071Z,1019.88
2022-10-19T11:33:44.680Z,1019.83
2022-10-19T11:34:44.656Z,1019.83
2022-10-19T11:35:44.633Z,1019.79
2022-10-19T11:36:44.614Z,1019.71
2022-10-19T11:37:49.940Z,1019.71
2022-10-19T11:38:44.585Z,1019.66
2022-10-19T11:39:44.547Z,1019.62
2022-10-19T11:40:54.163Z,1019.56
2022-10-19T11:41:44.501Z,1019.47
2022-10-19T11:42:44.577Z,1019.60
2022-10-19T11:43:44.461Z,1019.59
2022-10-19T11:44:44.435Z,1019.55
2022-10-19T11:45:44.413Z,1019.54
2022-10-19T11:46:44.391Z,1019.46
2022-10-19T11:47:44.373Z,1019.49
2022-10-19T11:48:44.344Z,1019.46
2022-10-19T11:49:44.335Z,1019.52
2022-10-19T11:50:49.726Z,1019.48
2022-10-19T11:51:44.284Z,1019.45
2022-10-19T11:52:44.262Z,1019.43
2022-10-19T11:53:44.237Z,1019.46
2022-10-19T11:54:44.231Z,1019.44
2022-10-19T11:55:44.193Z,1019.45
2022-10-19T11:57:02.242Z,1019.44
2022-10-19T11:57:44.149Z,1019.41
2022-10-19T11:58:44.249Z,1019.42
2022-10-19T11:59:44.105Z,1019.40
2022-10-19T12:00:44.082Z,1019.36
2022-10-19T12:01:44.172Z,1019.33
2022-10-19T12:02:44.039Z,1019.33
2022-10-19T12:03:44.018Z,1019.29
2022-10-19T12:04:43.991Z,1019.32
2022-10-19T12:05:43.974Z,1019.35
2022-10-19T12:06:43.950Z,1019.33
2022-10-19T12:07:43.928Z,1019.31
2022-10-19T12:08:43.971Z,1019.32
2022-10-19T12:09:43.886Z,1019.31
2022-10-19T12:10:43.880Z,1019.33
2022-10-19T12:11:43.842Z,1019.31
2022-10-19T12:12:43.817Z,1019.26
2022-10-19T12:13:43.799Z,1019.24
2022-10-19T12:14:43.772Z,1019.23